createdAt,value
2018-01-17T00:01:34.978Z,97955.01
2018-01-17T00:04:02.454Z,97961.69
2018-01-17T00:06:29.898Z,97944.34
2018-01-17T00:08:57.347Z,97941.21
2018-01-17T00:11:24.811Z,97929.70
2018-01-17T00:13:52.294Z,97922.73
2018-01-17T00:16:19.766Z,97923.77
2018-01-17T00:18:47.217Z,97916.27
2018-01-17T00:21:14.713Z,97912.64
2018-01-17T00:23:42.163Z,97907.95
2018-01-17T00:26:09.622Z,97914.81
2018-01-17T00:28:37.070Z,97918.26
2018-01-17T00:31:04.542Z,97923.38
2018-01-17T00:33:31.985Z,97919.09
2018-01-17T00:35:59.463Z,97899.53
2018-01-17T00:38:26.997Z,97892.83
2018-01-17T00:40:54.476Z,97899.42
2018-01-17T00:43:21.917Z,97906.64
2018-01-17T00:45:49.406Z,97901.84
2018-01-17T00:48:16.854Z,97895.12
2018-01-17T00:50:44.318Z,97903.41
2018-01-17T00:53:11.775Z,97889.03
2018-01-17T00:55:39.258Z,97886.36
2018-01-17T00:58:06.706Z,97893.64
2018-01-17T01:00:34.174Z,97889.63
2018-01-17T01:03:01.621Z,97911.80
2018-01-17T01:05:29.092Z,97918.66
2018-01-17T01:07:56.542Z,97917.03
2018-01-17T01:10:24.011Z,97922.68
2018-01-17T01:12:51.473Z,97922.05
2018-01-17T01:15:18.955Z,97923.00
2018-01-17T01:17:46.446Z,97919.02
2018-01-17T01:20:13.939Z,97908.05
2018-01-17T01:22:41.402Z,97908.85
2018-01-17T01:25:08.870Z,97916.77
2018-01-17T01:27:36.322Z,97926.56
2018-01-17T01:30:03.794Z,97919.45
2018-01-17T01:32:31.243Z,97938.70
2018-01-17T01:34:58.690Z,97911.90
2018-01-17T01:37:26.158Z,97910.81
2018-01-17T01:39:53.611Z,97913.34
2018-01-17T01:42:21.074Z,97913.88
2018-01-17T01:44:48.523Z,97905.59
2018-01-17T01:47:16.001Z,97923.42
2018-01-17T01:49:43.453Z,97923.84
2018-01-17T01:52:10.925Z,97932.82
2018-01-17T01:54:38.370Z,97911.79
2018-01-17T01:57:05.838Z,97925.34
2018-01-17T01:59:33.293Z,97923.73
2018-01-17T02:02:00.802Z,97919.84
2018-01-17T02:04:28.250Z,97915.19
2018-01-17T02:06:55.719Z,97891.19
2018-01-17T02:09:23.173Z,97930.05
2018-01-17T02:11:50.647Z,97933.94
2018-01-17T02:14:18.106Z,97916.92
2018-01-17T02:16:45.578Z,97925.78
2018-01-17T02:19:13.034Z,97941.48
2018-01-17T02:21:40.503Z,97949.92
2018-01-17T02:24:07.951Z,97955.30
2018-01-17T02:26:35.418Z,97954.47
2018-01-17T02:29:02.871Z,97943.59
2018-01-17T02:31:30.352Z,97944.42
2018-01-17T02:33:57.860Z,97939.35
2018-01-17T02:36:25.334Z,97951.39
2018-01-17T02:38:52.787Z,97954.88
2018-01-17T02:41:20.254Z,97963.19
2018-01-17T02:43:47.706Z,97952.72
2018-01-17T02:46:15.219Z,97958.59
2018-01-17T02:48:42.651Z,97945.22
2018-01-17T02:51:10.150Z,97946.14
2018-01-17T02:53:37.598Z,97945.89
2018-01-17T02:56:05.047Z,97962.14
2018-01-17T02:58:32.523Z,97959.15
2018-01-17T03:00:59.970Z,97958.11
2018-01-17T03:03:27.439Z,97966.44
2018-01-17T03:05:54.892Z,97962.16
2018-01-17T03:08:22.366Z,97985.34
2018-01-17T03:10:49.831Z,97989.24
2018-01-17T03:13:17.299Z,97987.75
2018-01-17T03:15:44.751Z,97975.01
2018-01-17T03:18:12.219Z,97992.14
2018-01-17T03:20:39.666Z,97997.63
2018-01-17T03:23:07.165Z,97992.16
2018-01-17T03:25:34.619Z,97990.79
2018-01-17T03:28:02.087Z,97980.70
2018-01-17T03:30:29.538Z,97976.84
2018-01-17T03:32:57.010Z,97996.01
2018-01-17T03:35:24.467Z,97994.14
2018-01-17T03:37:51.936Z,97991.61
2018-01-17T03:40:19.379Z,97998.84
2018-01-17T03:42:46.849Z,97995.31
2018-01-17T03:45:14.305Z,97988.76
2018-01-17T03:47:41.770Z,97994.13
2018-01-17T03:50:09.222Z,98004.31
2018-01-17T03:52:36.691Z,98004.50
2018-01-17T03:55:04.152Z,98016.03
2018-01-17T03:57:31.627Z,98016.98
2018-01-17T03:59:59.075Z,98012.09
2018-01-17T04:02:26.580Z,98015.62
2018-01-17T04:04:54.058Z,98013.47
2018-01-17T04:07:21.533Z,98031.55
2018-01-17T04:09:48.977Z,98027.10
2018-01-17T04:12:16.447Z,97996.26
2018-01-17T04:14:43.895Z,98015.16
2018-01-17T04:17:11.371Z,98018.61
2018-01-17T04:19:38.822Z,98031.97
2018-01-17T04:22:06.366Z,98023.94
2018-01-17T04:24:33.838Z,98036.92
2018-01-17T04:27:01.290Z,98035.56
2018-01-17T04:29:28.760Z,98022.60
2018-01-17T04:31:56.214Z,98006.32
2018-01-17T04:34:23.691Z,98033.67
2018-01-17T04:36:51.138Z,98032.45
2018-01-17T04:39:18.607Z,98045.88
2018-01-17T04:41:46.058Z,98050.70
2018-01-17T04:44:13.530Z,98059.92
2018-01-17T04:46:40.974Z,98054.89
2018-01-17T04:49:08.447Z,98050.22
2018-01-17T04:51:35.899Z,98043.30
2018-01-17T04:54:03.464Z,98050.75
2018-01-17T04:56:30.915Z,98053.83
2018-01-17T04:58:58.382Z,98045.35
2018-01-17T05:01:25.835Z,98068.59
2018-01-17T05:03:53.306Z,98062.84
2018-01-17T05:06:20.750Z,98065.95
2018-01-17T05:08:48.222Z,98076.57
2018-01-17T05:11:15.678Z,98127.97
2018-01-17T05:13:43.186Z,98132.11
2018-01-17T05:16:10.638Z,98142.95
2018-01-17T05:18:38.107Z,98161.52
2018-01-17T05:21:05.561Z,98178.28
2018-01-17T05:23:33.027Z,98188.63
2018-01-17T05:26:00.475Z,98186.94
2018-01-17T05:28:27.948Z,98192.53
2018-01-17T05:30:55.394Z,98196.89
2018-01-17T05:33:22.876Z,98225.44
2018-01-17T05:35:50.334Z,98183.49
2018-01-17T05:38:17.813Z,98228.96
2018-01-17T05:40:45.254Z,98242.11
2018-01-17T05:43:12.703Z,98235.69
2018-01-17T05:45:40.169Z,98228.30
2018-01-17T05:48:07.765Z,98244.27
2018-01-17T05:50:35.222Z,98267.11
2018-01-17T05:53:02.662Z,98284.52
2018-01-17T05:55:30.126Z,98293.09
2018-01-17T05:57:57.574Z,98275.43
2018-01-17T06:00:25.034Z,98270.59
2018-01-17T06:02:52.478Z,98276.91
2018-01-17T06:05:19.950Z,98279.68
2018-01-17T06:07:47.408Z,98284.11
2018-01-17T06:10:14.882Z,98288.92
2018-01-17T06:12:42.337Z,98296.28
2018-01-17T06:15:09.803Z,98294.23
2018-01-17T06:17:37.253Z,98288.33
2018-01-17T06:20:04.717Z,98275.90
2018-01-17T06:22:32.213Z,98291.20
2018-01-17T06:24:59.661Z,98296.59
2018-01-17T06:27:27.106Z,98297.06
2018-01-17T06:29:54.616Z,98307.58
2018-01-17T06:32:22.071Z,98307.37
2018-01-17T06:34:49.543Z,98320.06
2018-01-17T06:37:16.997Z,98319.55
2018-01-17T06:39:44.458Z,98320.28
2018-01-17T06:42:11.942Z,98325.27
2018-01-17T06:44:39.412Z,98328.59
2018-01-17T06:47:06.868Z,98331.84
2018-01-17T06:49:34.342Z,98339.89
2018-01-17T06:52:01.795Z,98353.88
2018-01-17T06:54:29.266Z,98346.41
2018-01-17T06:56:56.721Z,98354.89
2018-01-17T06:59:24.219Z,98384.97
2018-01-17T07:01:51.671Z,98390.97
2018-01-17T07:04:19.128Z,98384.55
2018-01-17T07:06:46.615Z,98401.86
2018-01-17T07:09:14.068Z,98420.80
2018-01-17T07:11:41.548Z,98373.59
2018-01-17T07:14:09.034Z,98346.81
2018-01-17T07:16:36.498Z,98426.40
2018-01-17T07:19:04.109Z,98418.30
2018-01-17T07:21:31.575Z,98439.64
2018-01-17T07:23:59.022Z,98446.53
2018-01-17T07:26:26.488Z,98433.90
2018-01-17T07:28:53.938Z,98470.80
2018-01-17T07:31:21.408Z,98482.47
2018-01-17T07:33:48.855Z,98478.52
2018-01-17T07:36:16.327Z,98479.03
2018-01-17T07:38:43.775Z,98485.93
2018-01-17T07:41:11.246Z,98495.16
2018-01-17T07:43:38.693Z,98487.69
2018-01-17T07:46:06.159Z,98493.20
2018-01-17T07:48:33.607Z,98496.77
2018-01-17T07:51:01.079Z,98523.94
2018-01-17T07:53:28.535Z,98510.95
2018-01-17T07:55:56.009Z,98531.01
2018-01-17T07:58:23.475Z,98527.98
2018-01-17T08:00:50.950Z,98530.55
2018-01-17T08:03:18.407Z,98537.53
2018-01-17T08:05:45.886Z,98544.21
2018-01-17T08:08:13.355Z,98543.86
2018-01-17T08:10:40.822Z,98548.22
2018-01-17T08:13:08.271Z,98553.36
2018-01-17T08:15:35.738Z,98551.19
2018-01-17T08:18:03.247Z,98547.95
2018-01-17T08:20:30.724Z,98556.00
2018-01-17T08:22:58.185Z,98556.12
2018-01-17T08:25:25.818Z,98557.64
2018-01-17T08:27:53.278Z,98548.05
2018-01-17T08:30:20.738Z,98567.19
2018-01-17T08:32:48.206Z,98566.81
2018-01-17T08:35:15.657Z,98567.31
2018-01-17T08:37:43.130Z,98565.05
2018-01-17T08:40:10.583Z,98566.87
2018-01-17T08:42:38.053Z,98588.80
2018-01-17T08:45:05.509Z,98589.63
2018-01-17T08:47:32.982Z,98601.70
2018-01-17T08:50:00.431Z,98613.47
2018-01-17T08:52:27.905Z,98614.13
2018-01-17T08:54:55.358Z,98613.77
2018-01-17T08:57:22.827Z,98628.26
2018-01-17T08:59:50.282Z,98610.66
2018-01-17T09:02:17.810Z,98616.69
2018-01-17T09:04:45.272Z,98611.05
2018-01-17T09:07:12.743Z,98612.05
2018-01-17T09:09:40.197Z,98637.95
2018-01-17T09:12:07.666Z,98643.90
2018-01-17T09:14:35.121Z,98639.15
2018-01-17T09:17:02.598Z,98608.17
2018-01-17T09:19:30.055Z,98654.07
2018-01-17T09:21:57.527Z,98656.26
2018-01-17T09:24:24.987Z,98650.56
2018-01-17T09:26:52.459Z,98679.35
2018-01-17T09:29:19.915Z,98677.20
2018-01-17T09:31:47.394Z,98683.05
2018-01-17T09:34:14.971Z,98671.03
2018-01-17T09:36:42.466Z,98667.67
2018-01-17T09:39:09.919Z,98690.08
2018-01-17T09:41:37.390Z,98692.92
2018-01-17T09:44:04.842Z,98645.45
2018-01-17T09:46:32.322Z,98704.03
2018-01-17T09:48:59.782Z,98703.59
2018-01-17T09:51:27.237Z,98702.75
2018-01-17T09:53:54.703Z,98700.16
2018-01-17T09:56:22.154Z,98709.17
2018-01-17T09:58:49.622Z,98705.80
2018-01-17T10:01:17.071Z,98690.19
2018-01-17T10:03:44.537Z,98701.88
2018-01-17T10:06:11.994Z,98703.59
2018-01-17T10:08:39.474Z,98706.71
2018-01-17T10:11:06.923Z,98691.04
2018-01-17T10:13:34.394Z,98705.97
2018-01-17T10:16:01.848Z,98717.36
2018-01-17T10:18:29.314Z,98734.74
2018-01-17T10:20:56.763Z,98699.85
2018-01-17T10:23:24.238Z,98716.74
2018-01-17T10:25:51.695Z,98745.12
2018-01-17T10:28:19.164Z,98739.70
2018-01-17T10:30:46.615Z,98749.50
2018-01-17T10:33:14.082Z,98745.69
2018-01-17T10:35:41.847Z,98750.28
2018-01-17T10:38:09.324Z,98735.23
2018-01-17T10:40:36.783Z,98728.84
2018-01-17T10:43:04.283Z,98754.70
2018-01-17T10:45:31.738Z,98741.47
2018-01-17T10:48:00.048Z,98762.03
2018-01-17T10:50:27.507Z,98760.57
2018-01-17T10:52:54.984Z,98771.50
2018-01-17T10:55:22.463Z,98782.36
2018-01-17T10:57:49.930Z,98727.38
2018-01-17T11:00:17.378Z,98768.45
2018-01-17T11:02:44.842Z,98775.49
2018-01-17T11:05:12.299Z,98788.28
2018-01-17T11:07:39.770Z,98792.53
2018-01-17T11:10:07.213Z,98795.67
2018-01-17T11:12:34.695Z,98799.30
2018-01-17T11:15:02.153Z,98787.66
2018-01-17T11:17:29.606Z,98794.91
2018-01-17T11:19:57.071Z,98798.10
2018-01-17T11:22:24.615Z,98822.31
2018-01-17T11:24:52.082Z,98809.36
2018-01-17T11:27:19.531Z,98801.80
2018-01-17T11:29:47.003Z,98810.92
2018-01-17T11:32:14.459Z,98827.11
2018-01-17T11:34:41.952Z,98799.88
2018-01-17T11:37:09.399Z,98801.19
2018-01-17T11:39:36.875Z,98822.28
2018-01-17T11:42:04.351Z,98821.22
2018-01-17T11:44:31.826Z,98831.44
2018-01-17T11:46:59.294Z,98819.03
2018-01-17T11:49:26.791Z,98803.31
2018-01-17T11:51:54.251Z,98813.89
2018-01-17T11:54:21.718Z,98823.28
2018-01-17T11:56:49.175Z,98793.09
2018-01-17T11:59:16.654Z,98816.45
2018-01-17T12:01:44.116Z,98828.36
2018-01-17T12:04:11.588Z,98788.44
2018-01-17T12:06:39.039Z,98781.30
2018-01-17T12:09:06.502Z,98790.55
2018-01-17T12:11:33.959Z,98812.09
2018-01-17T12:14:01.440Z,98814.78
2018-01-17T12:16:28.922Z,98797.95
2018-01-17T12:18:56.404Z,98822.78
2018-01-17T12:21:23.859Z,98823.89
2018-01-17T12:23:51.335Z,98825.03
2018-01-17T12:26:18.785Z,98812.27
2018-01-17T12:28:46.255Z,98824.17
2018-01-17T12:31:13.707Z,98854.45
2018-01-17T12:33:41.179Z,98820.45
2018-01-17T12:36:08.623Z,98852.96
2018-01-17T12:38:36.103Z,98844.45
2018-01-17T12:41:03.550Z,98844.50
2018-01-17T12:43:30.998Z,98843.73
2018-01-17T12:45:58.471Z,98850.64
2018-01-17T12:48:26.508Z,98859.80
2018-01-17T12:50:53.999Z,98858.14
2018-01-17T12:53:21.458Z,98853.28
2018-01-17T12:55:48.935Z,98869.52
2018-01-17T12:58:16.395Z,98857.52
2018-01-17T13:00:43.870Z,98795.52
2018-01-17T13:03:11.311Z,98883.17
2018-01-17T13:05:38.774Z,98879.80
2018-01-17T13:08:06.230Z,98884.17
2018-01-17T13:10:33.705Z,98844.81
2018-01-17T13:13:01.156Z,98879.82
2018-01-17T13:15:28.632Z,98851.94
2018-01-17T13:17:56.089Z,98857.25
2018-01-17T13:20:23.551Z,98872.20
2018-01-17T13:22:51.020Z,98875.09
2018-01-17T13:25:18.498Z,98866.94
2018-01-17T14:43:42.920Z,99029.45
2018-01-17T14:46:10.388Z,99040.66
2018-01-17T14:48:37.841Z,99035.44
2018-01-17T14:51:05.311Z,99042.22
2018-01-17T14:53:32.759Z,99036.48
2018-01-17T14:56:00.222Z,99039.42
2018-01-17T14:58:27.687Z,99049.65
2018-01-17T15:00:55.162Z,99057.02
2018-01-17T15:03:22.615Z,99079.27
2018-01-17T15:05:50.078Z,99044.36
2018-01-17T15:08:17.543Z,99089.62
2018-01-17T15:10:45.019Z,98955.65
2018-01-17T15:13:12.474Z,99053.77
2018-01-17T15:15:39.946Z,99085.88
2018-01-17T15:18:07.402Z,99077.31
2018-01-17T15:20:34.878Z,99110.27
2018-01-17T15:23:02.318Z,99112.66
2018-01-17T15:25:29.800Z,99112.98
2018-01-17T15:27:57.283Z,99138.24
2018-01-17T15:30:24.759Z,99137.94
2018-01-17T15:32:52.231Z,99104.41
2018-01-17T15:35:19.678Z,99127.45
2018-01-17T15:37:47.142Z,99133.14
2018-01-17T15:40:14.599Z,99127.17
2018-01-17T15:42:42.079Z,99133.71
2018-01-17T15:45:09.539Z,99136.34
2018-01-17T15:47:37.020Z,99134.20
2018-01-17T15:50:04.477Z,99117.80
2018-01-17T15:52:31.977Z,99134.75
2018-01-17T15:54:59.444Z,99153.70
2018-01-17T15:57:26.919Z,99143.83
2018-01-17T15:59:54.374Z,99159.59
2018-01-17T16:02:21.842Z,99171.14
2018-01-17T16:04:49.295Z,99173.02
2018-01-17T16:07:16.759Z,99167.12
2018-01-17T16:09:44.230Z,99177.91
2018-01-17T16:12:11.706Z,99178.03
2018-01-17T16:14:39.172Z,99150.26
2018-01-17T16:17:06.643Z,99182.92
2018-01-17T16:19:34.094Z,99192.31
2018-01-17T16:22:01.566Z,99204.88
2018-01-17T16:24:29.014Z,99207.06
2018-01-17T16:29:30.339Z,99210.55
2018-01-17T16:31:57.821Z,99215.34
2018-01-17T16:34:25.272Z,99226.72
2018-01-17T16:36:52.735Z,99228.41
2018-01-17T16:39:20.199Z,99244.73
2018-01-17T16:41:47.662Z,99240.83
2018-01-17T16:44:15.111Z,99253.08
2018-01-17T16:46:42.590Z,99254.45
2018-01-17T16:49:10.047Z,99255.94
2018-01-17T16:51:37.511Z,99262.59
2018-01-17T16:54:04.982Z,99272.27
2018-01-17T16:56:32.445Z,99295.05
2018-01-17T16:58:59.924Z,99269.53
2018-01-17T17:01:27.379Z,99283.92
2018-01-17T17:03:54.860Z,99240.78
2018-01-17T17:06:22.324Z,99284.16
2018-01-17T17:08:49.799Z,99292.37
2018-01-17T17:11:17.258Z,99292.58
2018-01-17T17:13:44.733Z,99289.66
2018-01-17T17:16:12.183Z,99304.47
2018-01-17T17:18:39.659Z,99305.02
2018-01-17T17:21:07.133Z,99301.75
2018-01-17T17:23:34.610Z,99304.30
2018-01-17T17:26:02.068Z,99311.23
2018-01-17T17:28:29.559Z,99297.41
2018-01-17T17:30:57.006Z,99309.72
2018-01-17T17:33:24.494Z,99315.94
2018-01-17T17:35:51.950Z,99304.42
2018-01-17T17:38:19.426Z,99320.66
2018-01-17T17:40:46.891Z,99320.55
2018-01-17T17:43:14.364Z,99322.61
2018-01-17T17:45:41.811Z,99323.44
2018-01-17T17:48:09.293Z,99307.77
2018-01-17T17:50:36.844Z,99319.03
2018-01-17T17:53:04.327Z,99323.16
2018-01-17T17:55:31.809Z,99320.94
2018-01-17T17:57:59.282Z,99301.03
2018-01-17T18:00:26.732Z,99320.83
2018-01-17T18:02:54.211Z,99334.42
2018-01-17T18:05:21.683Z,99320.70
2018-01-17T18:07:49.167Z,99332.32
2018-01-17T18:10:16.643Z,99323.50
2018-01-17T18:12:44.332Z,99335.34
2018-01-17T18:15:11.804Z,99330.09
2018-01-17T18:17:39.255Z,99320.88
2018-01-17T18:20:06.732Z,99334.18
2018-01-17T18:22:34.226Z,99333.77
2018-01-17T18:25:01.726Z,99349.41
2018-01-17T18:27:29.192Z,99341.23
2018-01-17T18:29:56.670Z,99345.34
2018-01-17T18:32:24.123Z,99342.19
2018-01-17T18:34:51.632Z,99340.94
2018-01-17T18:37:19.100Z,99347.67
2018-01-17T18:39:46.579Z,99346.37
2018-01-17T18:42:14.043Z,99341.65
2018-01-17T18:44:41.511Z,99343.48
2018-01-17T18:47:08.980Z,99342.99
2018-01-17T18:49:36.446Z,99339.84
2018-01-17T18:52:03.930Z,99330.23
2018-01-17T18:54:31.404Z,99356.30
2018-01-17T18:56:58.883Z,99338.51
2018-01-17T18:59:26.353Z,99353.63
2018-01-17T19:01:53.816Z,99347.71
2018-01-17T19:04:21.283Z,99328.48
2018-01-17T19:06:48.738Z,99367.34
2018-01-17T19:09:16.205Z,99353.37
2018-01-17T19:11:43.650Z,99361.83
2018-01-17T19:14:11.131Z,99364.86
2018-01-17T19:16:38.634Z,99361.47
2018-01-17T19:19:06.119Z,99357.98
2018-01-17T19:21:39.384Z,99363.93
2018-01-17T19:24:07.547Z,99369.17
2018-01-17T19:26:34.999Z,99358.78
2018-01-17T19:29:02.477Z,99371.75
2018-01-17T19:31:29.938Z,99383.52
2018-01-17T19:33:57.426Z,99378.33
2018-01-17T19:36:24.876Z,99373.03
2018-01-17T19:38:52.369Z,99376.64
2018-01-17T19:41:19.842Z,99377.16
2018-01-17T19:43:47.311Z,99383.03
2018-01-17T19:46:14.791Z,99385.34
2018-01-17T19:48:42.251Z,99383.38
2018-01-17T19:51:09.727Z,99376.27
2018-01-17T19:53:37.183Z,99378.81
2018-01-17T19:56:04.695Z,99372.17
2018-01-17T19:58:32.153Z,99363.84
2018-01-17T20:00:59.627Z,99377.05
2018-01-17T20:03:27.116Z,99373.41
2018-01-17T20:05:54.592Z,99372.20
2018-01-17T20:08:22.055Z,99370.99
2018-01-17T20:10:49.527Z,99371.33
2018-01-17T20:13:16.988Z,99369.99
2018-01-17T20:15:44.475Z,99358.46
2018-01-17T20:18:11.928Z,99369.41
2018-01-17T20:20:39.412Z,99377.25
2018-01-17T20:23:07.841Z,99374.48
2018-01-17T20:25:35.316Z,99378.99
2018-01-17T20:28:02.777Z,99373.00
2018-01-17T20:30:30.247Z,99381.51
2018-01-17T20:32:57.754Z,99370.70
2018-01-17T20:35:25.332Z,99374.56
2018-01-17T20:37:52.798Z,99367.39
2018-01-17T20:40:20.308Z,99375.37
2018-01-17T20:42:47.810Z,99380.77
2018-01-17T20:45:15.294Z,99378.43
2018-01-17T20:47:42.769Z,99375.58
2018-01-17T20:50:10.353Z,99378.36
2018-01-17T20:52:37.814Z,99386.70
2018-01-17T20:55:05.300Z,99392.14
2018-01-17T20:57:32.769Z,99386.74
2018-01-17T21:00:00.250Z,99387.54
2018-01-17T21:02:27.719Z,99390.40
2018-01-17T21:04:55.199Z,99383.69
2018-01-17T21:07:22.679Z,99387.00
2018-01-17T21:09:50.158Z,99392.29
2018-01-17T21:12:17.647Z,99390.98
2018-01-17T21:14:45.133Z,99390.26
2018-01-17T21:17:12.648Z,99397.13
2018-01-17T21:19:40.103Z,99401.59
2018-01-17T21:22:07.590Z,99407.36
2018-01-17T21:24:35.046Z,99397.78
2018-01-17T21:27:02.524Z,99402.95
2018-01-17T21:29:29.970Z,99410.22
2018-01-17T21:31:57.458Z,99414.99
2018-01-17T21:34:24.928Z,99410.39
2018-01-17T21:36:52.508Z,99418.74
2018-01-17T21:39:19.969Z,99415.06
2018-01-17T21:41:47.443Z,99423.84
2018-01-17T21:44:20.338Z,99428.75
2018-01-17T21:46:48.594Z,99424.14
2018-01-17T21:49:16.064Z,99435.02
2018-01-17T21:51:43.530Z,99434.73
2018-01-17T21:54:11.006Z,99420.08
2018-01-17T21:56:38.482Z,99414.88
2018-01-17T21:59:05.935Z,99425.47
2018-01-17T22:01:33.414Z,99413.50
2018-01-17T22:04:00.869Z,99409.01
2018-01-17T22:06:28.351Z,99412.84
2018-01-17T22:08:55.804Z,99405.16
2018-01-17T22:11:23.275Z,99404.64
2018-01-17T22:13:50.794Z,99383.92
2018-01-17T22:16:18.277Z,99402.81
2018-01-17T22:18:45.774Z,99390.28
2018-01-17T22:21:13.247Z,99396.66
2018-01-17T22:23:40.698Z,99396.52
2018-01-17T22:26:08.156Z,99391.43
2018-01-17T22:28:35.630Z,99400.84
2018-01-17T22:31:03.141Z,99393.73
2018-01-17T22:33:30.612Z,99381.92
2018-01-17T22:35:58.066Z,99390.59
2018-01-17T22:38:25.545Z,99377.38
2018-01-17T22:40:52.994Z,99381.70
2018-01-17T22:43:20.474Z,99375.20
2018-01-17T22:45:47.932Z,99355.42
2018-01-17T22:48:15.408Z,99367.93
2018-01-17T22:50:42.872Z,99369.83
2018-01-17T22:53:10.339Z,99363.30
2018-01-17T22:55:37.794Z,99359.17
2018-01-17T22:58:05.279Z,99357.12
2018-01-17T23:00:32.746Z,99365.64
2018-01-17T23:03:00.216Z,99366.74
2018-01-17T23:05:27.678Z,99365.23
2018-01-17T23:07:55.144Z,99365.48
2018-01-17T23:10:22.613Z,99370.13
2018-01-17T23:12:50.091Z,99363.38
2018-01-17T23:15:17.545Z,99369.37
2018-01-17T23:17:45.087Z,99368.67
2018-01-17T23:20:12.538Z,99355.84
2018-01-17T23:22:40.014Z,99358.59
2018-01-17T23:25:07.470Z,99366.80
2018-01-17T23:27:34.938Z,99371.13
2018-01-17T23:30:02.432Z,99369.20
2018-01-17T23:32:29.911Z,99370.66
2018-01-17T23:34:57.364Z,99367.22
2018-01-17T23:37:24.839Z,99353.22
2018-01-17T23:39:52.428Z,99345.33
2018-01-17T23:42:19.902Z,99343.17
2018-01-17T23:44:47.351Z,99339.45
2018-01-17T23:47:14.820Z,99332.53
2018-01-17T23:49:42.275Z,99330.69
2018-01-17T23:52:09.777Z,99332.43
2018-01-17T23:54:37.287Z,99325.73
2018-01-17T23:57:04.739Z,99322.86
2018-01-17T23:59:32.235Z,99321.83
